Time;durP1;ratioP1;P1;durP2;ratioP2;P2;SDS_P1;SDS_P2;PMS_P1;PMS_P2;Temp;Humidity;BMP_temperature;BMP_pressure;BME280_temperature;BME280_humidity;BME280_pressure;Samples;Min_cycle;Max_cycle;Signal;HPM_P1;HPM_P2
2022/11/11 06:06:40;;;;;;;10.10;3.58;;;;;;;;;;5024686;28;20062;-85
2022/11/11 06:09:42;;;;;;;10.13;3.90;;;6.40;99.90;;;;;;5010832;28;20037;-87
2022/11/11 06:13:12;;;;;;;8.98;3.45;;;6.50;99.90;;;;;;4946683;29;20076;-88
2022/11/11 06:16:52;;;;;;;12.00;3.65;;;6.40;99.90;;;;;;4888088;29;20037;-83
2022/11/11 06:20:24;;;;;;;15.77;3.15;;;6.30;99.90;;;;;;4882101;29;20131;-85
2022/11/11 06:23:53;;;;;;;10.15;3.50;;;6.30;99.90;;;;;;4962492;28;20076;-84
2022/11/11 06:27:18;;;;;;;6.63;3.20;;;6.30;99.90;;;;;;4911405;29;20124;-86
2022/11/11 06:47:45;;;;;;;5.25;2.40;;;6.50;99.90;;;;;;4869571;29;20119;-87
2022/11/11 06:50:52;;;;;;;5.90;2.70;;;6.50;99.90;;;;;;4874704;29;20525;-85
2022/11/11 06:53:44;;;;;;;5.20;2.63;;;5.50;99.90;;;;;;4867433;29;20057;-82
2022/11/11 15:14:47;;;;;;;13.30;8.07;;;9.30;99.90;;;;;;5725692;23;20063;-84
2022/11/11 15:26:55;;;;;;;14.25;9.00;;;;;;;;;;5029219;23;20051;-82
2022/11/11 15:29:46;;;;;;;15.88;9.30;;;;;;;;;;4995867;28;20035;-83
2022/11/11 16:46:03;;;;;;;17.60;10.93;;;9.10;99.90;;;;;;4977065;28;20058;-84
2022/11/11 16:48:32;;;;;;;16.58;10.70;;;;;;;;;;4965681;28;20481;-86
2022/11/11 16:51:01;;;;;;;20.55;11.70;;;;;;;;;;4977358;28;20027;-86
2022/11/11 16:53:32;;;;;;;18.55;11.70;;;;;;;;;;4957654;28;20082;-86
2022/11/11 16:55:59;;;;;;;22.45;11.75;;;;;;;;;;4978269;28;20022;-88
2022/11/11 16:58:28;;;;;;;18.08;11.18;;;;;;;;;;4981430;28;20043;-85
2022/11/11 17:01:01;;;;;;;19.48;11.75;;;;;;;;;;4964616;28;20023;-88
2022/11/11 17:03:28;;;;;;;18.42;10.82;;;;;;;;;;4962419;28;20113;-86
2022/11/11 17:06:00;;;;;;;17.50;10.70;;;9.10;99.90;;;;;;4963946;28;20159;-85
2022/11/11 17:08:43;;;;;;;18.05;10.52;;;9.10;99.90;;;;;;4960890;28;20034;-85
2022/11/11 17:11:30;;;;;;;18.70;10.95;;;9.10;99.90;;;;;;4963803;28;20397;-88
2022/11/11 17:13:56;;;;;;;23.50;11.32;;;;;;;;;;4959848;28;20117;-85
2022/11/11 17:16:22;;;;;;;17.67;10.65;;;;;;;;;;4979267;28;20031;-86
2022/11/11 17:18:48;;;;;;;17.02;11.18;;;;;;;;;;4975558;28;20050;-87
2022/11/11 17:21:14;;;;;;;18.40;10.20;;;;;;;;;;4981385;28;20030;-86
2022/11/11 17:23:40;;;;;;;19.27;10.82;;;;;;;;;;4960855;28;20031;-87
2022/11/11 17:26:06;;;;;;;18.10;10.90;;;;;;;;;;4964584;28;20066;-82
2022/11/11 17:28:33;;;;;;;21.77;11.68;;;;;;;;;;4970094;28;20516;-86
2022/11/11 17:31:07;;;;;;;17.25;10.52;;;9.20;99.90;;;;;;4980625;28;20086;-84
2022/11/11 17:33:33;;;;;;;19.80;10.02;;;;;;;;;;4979501;28;20050;-87
2022/11/11 17:36:00;;;;;;;16.48;8.88;;;;;;;;;;4964735;28;20066;-90
2022/11/11 17:38:27;;;;;;;14.50;9.27;;;;;;;;;;4981794;28;20033;-87
2022/11/11 17:40:53;;;;;;;14.80;9.88;;;;;;;;;;4966871;28;20022;-84
2022/11/11 17:43:19;;;;;;;15.27;9.57;;;;;;;;;;4983207;28;20031;-87
2022/11/11 17:45:46;;;;;;;14.63;9.40;;;;;;;;;;4964379;28;20030;-86
2022/11/11 17:48:12;;;;;;;15.18;9.05;;;;;;;;;;4966158;28;20134;-86
2022/11/11 17:50:40;;;;;;;13.70;9.05;;;;;;;;;;4970423;28;20058;-85
2022/11/11 17:53:06;;;;;;;16.58;10.10;;;;;;;;;;4978366;28;20027;-86
2022/11/11 17:55:32;;;;;;;14.55;9.45;;;;;;;;;;4964001;28;20502;-85
2022/11/11 17:57:59;;;;;;;18.05;9.88;;;;;;;;;;4962515;29;20031;-86
2022/11/11 18:00:25;;;;;;;15.77;9.45;;;;;;;;;;4961803;28;20046;-86
2022/11/11 18:02:51;;;;;;;18.60;9.80;;;;;;;;;;4980249;28;20375;-89
2022/11/11 18:05:19;;;;;;;15.70;10.13;;;;;;;;;;4962594;28;20026;-86
2022/11/11 18:07:45;;;;;;;14.95;10.32;;;;;;;;;;4965505;28;20028;-86
2022/11/11 18:10:12;;;;;;;15.70;8.68;;;;;;;;;;4976712;28;20030;-87
2022/11/11 18:12:38;;;;;;;16.25;10.90;;;;;;;;;;4970061;28;20031;-90
2022/11/11 18:15:05;;;;;;;15.73;9.98;;;9.10;99.90;;;;;;4970387;28;20031;-85
2022/11/11 18:17:31;;;;;;;15.93;10.32;;;;;;;;;;4984154;28;20046;-88
2022/11/11 18:19:57;;;;;;;16.27;10.00;;;;;;;;;;4983558;28;20031;-89
2022/11/11 18:22:23;;;;;;;16.58;10.05;;;;;;;;;;4969066;28;20062;-87
2022/11/11 18:24:49;;;;;;;14.48;9.23;;;;;;;;;;4972118;28;20041;-84
2022/11/11 18:27:16;;;;;;;15.57;10.40;;;;;;;;;;4974092;28;20058;-84
2022/11/11 18:29:42;;;;;;;15.95;9.32;;;;;;;;;;4973239;28;20034;-85
2022/11/11 18:32:08;;;;;;;15.93;9.77;;;;;;;;;;4960980;28;20027;-82
2022/11/11 18:34:34;;;;;;;13.95;9.23;;;;;;;;;;4959545;28;20027;-84
2022/11/11 18:37:02;;;;;;;17.13;9.45;;;;;;;;;;4984692;28;20015;-88
2022/11/11 18:39:28;;;;;;;16.05;10.48;;;;;;;;;;4983785;28;20074;-88
2022/11/11 18:41:54;;;;;;;15.98;10.52;;;;;;;;;;4979410;28;20042;-88
2022/11/11 18:44:20;;;;;;;15.15;9.40;;;;;;;;;;4988254;28;20035;-84
2022/11/11 18:46:47;;;;;;;15.48;8.90;;;;;;;;;;4980444;28;20023;-82
2022/11/11 18:49:13;;;;;;;15.60;9.80;;;;;;;;;;4962496;28;20054;-83
2022/11/11 18:51:40;;;;;;;17.25;10.18;;;;;;;;;;4966763;28;20500;-82
2022/11/11 18:54:06;;;;;;;15.70;10.00;;;;;;;;;;4963954;28;20497;-84
2022/11/11 18:56:34;;;;;;;16.63;10.43;;;;;;;;;;4958993;28;20034;-84
2022/11/11 18:59:00;;;;;;;16.27;10.27;;;;;;;;;;4971337;28;20014;-85
2022/11/11 19:01:28;;;;;;;15.75;9.40;;;;;;;;;;4961298;28;20661;-84
2022/11/11 19:03:57;;;;;;;18.13;10.80;;;;;;;;;;4981125;28;20114;-87
2022/11/11 19:06:25;;;;;;;17.67;10.70;;;;;;;;;;4964956;28;20497;-84
2022/11/11 19:09:05;;;;;;;16.60;10.38;;;8.70;99.90;;;;;;4967159;28;20092;-82
2022/11/11 19:11:32;;;;;;;17.90;10.50;;;8.70;99.90;;;;;;4965393;28;20098;-82
2022/11/11 19:14:01;;;;;;;21.27;11.98;;;8.80;99.90;;;;;;4965950;28;20102;-83
2022/11/11 19:16:28;;;;;;;17.00;10.27;;;;;;;;;;4965459;28;20141;-83
2022/11/11 19:18:54;;;;;;;14.68;9.43;;;;;;;;;;4961756;28;20043;-81
2022/11/11 19:21:24;;;;;;;16.13;9.98;;;;;;;;;;4963786;28;20027;-80
2022/11/11 19:23:51;;;;;;;16.90;10.02;;;;;;;;;;4968054;28;20559;-83
2022/11/11 19:26:18;;;;;;;16.13;9.40;;;;;;;;;;4983041;28;20042;-82
2022/11/11 19:28:45;;;;;;;15.73;9.65;;;;;;;;;;4976669;28;20049;-83
2022/11/11 19:31:12;;;;;;;18.35;11.40;;;;;;;;;;4979349;28;20046;-83
2022/11/11 19:33:40;;;;;;;19.77;9.40;;;8.50;99.90;;;;;;4967715;28;20066;-82
2022/11/11 19:36:07;;;;;;;17.88;10.63;;;;;;;;;;4966103;28;20066;-83
2022/11/11 19:38:33;;;;;;;19.70;11.18;;;;;;;;;;4961800;28;20031;-84
2022/11/11 19:41:05;;;;;;;18.08;10.35;;;;;;;;;;4983046;28;20045;-83
2022/11/11 19:43:31;;;;;;;19.20;10.45;;;;;;;;;;4977783;28;20591;-83
2022/11/11 19:46:01;;;;;;;17.73;10.40;;;8.30;99.90;;;;;;4968667;28;20511;-84
2022/11/11 19:48:31;;;;;;;21.57;10.77;;;;;;;;;;4965624;28;20178;-84
2022/11/11 19:51:02;;;;;;;21.67;11.27;;;;;;;;;;4958119;28;20031;-83
2022/11/11 19:53:29;;;;;;;20.48;11.23;;;;;;;;;;4964107;28;20073;-85
2022/11/11 19:55:59;;;;;;;20.67;10.43;;;;;;;;;;4965136;28;20054;-86
2022/11/11 19:58:25;;;;;;;20.60;10.40;;;;;;;;;;4969140;28;20062;-83
2022/11/11 20:00:51;;;;;;;19.00;10.82;;;;;;;;;;4975854;28;20118;-83
2022/11/11 20:03:17;;;;;;;18.98;10.52;;;;;;;;;;4968622;28;20035;-85
2022/11/11 20:05:43;;;;;;;14.90;8.93;;;;;;;;;;4970374;28;20031;-85
2022/11/11 20:08:12;;;;;;;16.73;9.38;;;;;;;;;;4989092;28;20033;-83
2022/11/11 20:10:40;;;;;;;21.02;9.98;;;;;;;;;;4970752;28;20043;-85
2022/11/11 20:13:06;;;;;;;18.58;10.07;;;;;;;;;;4967518;28;20023;-85
2022/11/11 20:15:33;;;;;;;18.10;9.80;;;8.30;99.90;;;;;;4963042;28;20472;-82
2022/11/11 20:17:59;;;;;;;15.43;9.20;;;;;;;;;;4981767;28;20027;-85
2022/11/11 20:20:25;;;;;;;16.85;9.07;;;;;;;;;;4967850;28;20033;-84
2022/11/11 20:22:51;;;;;;;15.98;8.90;;;;;;;;;;4960026;28;20027;-80
2022/11/11 20:25:18;;;;;;;14.90;8.85;;;;;;;;;;4975329;28;20022;-81
2022/11/11 20:27:44;;;;;;;15.18;8.23;;;;;;;;;;4987106;28;20082;-83
2022/11/11 20:30:10;;;;;;;15.32;8.07;;;;;;;;;;4989005;28;20027;-80
2022/11/11 20:32:36;;;;;;;13.43;7.43;;;;;;;;;;4973443;28;20078;-82
2022/11/11 20:35:02;;;;;;;13.38;7.78;;;;;;;;;;4975710;28;20035;-85
2022/11/11 20:37:29;;;;;;;15.30;8.60;;;;;;;;;;4988579;28;20047;-84
2022/11/11 20:39:55;;;;;;;14.20;8.15;;;;;;;;;;4970463;29;20023;-83
2022/11/11 20:42:21;;;;;;;17.17;8.52;;;;;;;;;;4945039;28;20027;-80
2022/11/11 20:44:47;;;;;;;14.00;8.63;;;;;;;;;;4975218;28;20154;-82
2022/11/11 20:47:13;;;;;;;14.68;8.35;;;;;;;;;;4972225;28;20027;-80
2022/11/11 20:49:39;;;;;;;12.20;8.00;;;;;;;;;;4968414;28;20062;-83
2022/11/11 20:52:05;;;;;;;14.50;8.18;;;;;;;;;;4993587;28;20030;-88
2022/11/11 20:54:31;;;;;;;14.15;8.65;;;;;;;;;;4984872;28;20043;-87
2022/11/11 20:56:57;;;;;;;13.85;8.25;;;;;;;;;;4981365;28;20317;-87
2022/11/11 20:59:24;;;;;;;12.52;8.52;;;;;;;;;;4981948;28;20022;-84
2022/11/11 21:01:51;;;;;;;12.65;8.00;;;;;;;;;;4962807;28;20124;-86
2022/11/11 21:04:20;;;;;;;13.95;7.63;;;;;;;;;;4995342;28;20015;-86
2022/11/11 21:06:47;;;;;;;12.77;7.43;;;;;;;;;;4976176;28;20134;-87
2022/11/11 21:09:13;;;;;;;10.68;7.43;;;;;;;;;;4980062;28;20093;-83
2022/11/11 21:11:39;;;;;;;11.65;7.20;;;;;;;;;;4990454;28;20008;-88
2022/11/11 21:14:06;;;;;;;12.52;7.43;;;;;;;;;;4979527;28;20033;-88
2022/11/11 21:16:33;;;;;;;13.63;8.10;;;;;;;;;;4990967;28;20051;-88
2022/11/11 21:18:59;;;;;;;12.32;7.03;;;;;;;;;;4980942;28;20042;-85
2022/11/11 21:21:28;;;;;;;13.35;7.30;;;8.30;99.90;;;;;;4978235;28;20102;-88
2022/11/11 21:23:57;;;;;;;10.13;6.45;;;;;;;;;;4995262;28;20015;-85
2022/11/11 21:26:24;;;;;;;11.13;6.50;;;;;;;;;;4982549;28;20099;-85
2022/11/11 21:28:50;;;;;;;11.30;7.38;;;;;;;;;;4997018;28;20011;-87
2022/11/11 21:31:18;;;;;;;11.25;6.82;;;;;;;;;;4980684;28;20042;-88
2022/11/11 21:33:48;;;;;;;11.85;7.57;;;;;;;;;;4981931;28;20035;-84
2022/11/11 21:36:14;;;;;;;11.43;6.63;;;;;;;;;;4980201;28;20234;-87
2022/11/11 21:38:42;;;;;;;11.18;6.95;;;;;;;;;;4980494;28;20102;-87
2022/11/11 21:41:12;;;;;;;10.30;6.32;;;;;;;;;;4981571;28;20035;-85
2022/11/11 21:43:39;;;;;;;11.90;6.90;;;;;;;;;;4999713;28;20027;-85
2022/11/11 21:46:07;;;;;;;15.68;7.18;;;8.20;99.90;;;;;;4998163;28;20105;-88
2022/11/11 21:48:35;;;;;;;12.18;7.32;;;;;;;;;;4975222;28;20023;-88
2022/11/11 21:51:08;;;;;;;10.73;6.72;;;;;;;;;;4980494;28;20019;-84
2022/11/11 21:53:34;;;;;;;9.25;6.22;;;;;;;;;;4977743;28;20027;-84
2022/11/11 21:56:02;;;;;;;14.50;6.15;;;;;;;;;;4976026;28;20039;-87
2022/11/11 21:58:28;;;;;;;10.30;6.82;;;;;;;;;;4977768;28;20035;-83
2022/11/11 22:00:54;;;;;;;11.63;6.85;;;;;;;;;;4977899;28;20018;-82
2022/11/11 22:03:20;;;;;;;10.93;7.10;;;;;;;;;;4983697;28;20038;-85
2022/11/11 22:05:46;;;;;;;11.00;6.93;;;;;;;;;;4966816;28;20030;-87
2022/11/11 22:08:13;;;;;;;10.75;7.07;;;;;;;;;;4964506;28;20130;-86
2022/11/11 22:10:39;;;;;;;9.90;6.57;;;;;;;;;;4964394;28;20050;-86
2022/11/11 22:13:05;;;;;;;7.78;5.45;;;;;;;;;;4978873;28;20497;-86
2022/11/11 22:15:31;;;;;;;9.43;6.07;;;;;;;;;;4966456;28;20030;-85
2022/11/11 22:17:57;;;;;;;11.70;6.40;;;;;;;;;;4983319;28;20286;-86
2022/11/11 22:20:24;;;;;;;12.35;6.55;;;;;;;;;;4983315;28;20029;-81
2022/11/11 22:22:50;;;;;;;10.98;7.18;;;;;;;;;;4979187;28;20039;-86
2022/11/11 22:25:16;;;;;;;9.55;6.35;;;;;;;;;;4961276;28;20042;-88
2022/11/11 22:27:42;;;;;;;10.52;6.13;;;;;;;;;;4960903;28;20054;-86
2022/11/11 22:30:08;;;;;;;10.23;6.72;;;;;;;;;;4990438;28;20103;-82
2022/11/11 22:32:37;;;;;;;13.90;8.32;;;;;;;;;;4962977;28;20047;-84
2022/11/11 22:35:03;;;;;;;10.57;6.15;;;;;;;;;;4949057;28;20038;-87
2022/11/11 22:37:29;;;;;;;10.73;6.25;;;;;;;;;;4965419;28;20038;-86
2022/11/11 22:39:55;;;;;;;10.43;6.88;;;7.80;99.90;;;;;;4962767;28;20023;-84
2022/11/11 22:42:21;;;;;;;11.32;6.95;;;;;;;;;;4961061;28;20074;-85
2022/11/11 22:44:47;;;;;;;11.73;6.35;;;;;;;;;;4978933;28;20030;-84
2022/11/11 22:47:13;;;;;;;11.20;6.60;;;;;;;;;;4958089;28;20397;-88
2022/11/11 22:49:39;;;;;;;9.93;6.47;;;;;;;;;;4976340;28;20035;-86
2022/11/11 22:52:05;;;;;;;11.10;6.88;;;;;;;;;;4962897;28;20027;-85
2022/11/11 22:54:34;;;;;;;11.05;6.50;;;;;;;;;;4963419;28;20077;-87
2022/11/11 22:57:08;;;;;;;11.02;6.22;;;7.90;99.90;;;;;;4961764;28;20023;-86
2022/11/11 22:59:34;;;;;;;9.52;6.13;;;;;;;;;;4977627;28;20031;-87
2022/11/11 23:02:00;;;;;;;12.20;6.57;;;;;;;;;;4963017;28;20091;-86
2022/11/11 23:04:26;;;;;;;8.95;6.15;;;;;;;;;;4983352;28;20026;-86
2022/11/11 23:06:52;;;;;;;11.18;6.63;;;;;;;;;;4977539;28;20493;-85
2022/11/11 23:09:18;;;;;;;9.63;6.40;;;;;;;;;;4978263;28;20070;-85
2022/11/11 23:11:44;;;;;;;8.70;5.93;;;;;;;;;;4955699;28;20042;-83
2022/11/11 23:14:15;;;;;;;10.80;6.57;;;;;;;;;;4964151;28;20033;-88
2022/11/11 23:16:58;;;;;;;11.63;7.30;;;;;;;;;;4983047;28;20035;-89
2022/11/11 23:19:31;;;;;;;10.60;7.13;;;;;;;;;;4979539;28;20035;-88
2022/11/11 23:21:58;;;;;;;12.95;7.30;;;;;;;;;;4952005;28;20035;-87
2022/11/11 23:24:24;;;;;;;11.38;7.50;;;;;;;;;;4982498;28;20038;-87
2022/11/11 23:26:55;;;;;;;9.85;6.53;;;;;;;;;;4986295;28;20038;-86
2022/11/11 23:29:22;;;;;;;10.75;6.68;;;;;;;;;;4982204;28;20026;-84
2022/11/11 23:31:48;;;;;;;10.88;6.65;;;;;;;;;;4965220;28;20042;-85
2022/11/11 23:34:21;;;;;;;8.93;6.05;;;;;;;;;;4965707;28;20027;-88
2022/11/11 23:36:47;;;;;;;11.30;7.00;;;;;;;;;;4963436;28;20015;-86
2022/11/11 23:39:22;;;;;;;10.93;6.57;;;;;;;;;;4984192;28;20019;-88
2022/11/11 23:41:48;;;;;;;12.18;7.03;;;;;;;;;;4960719;28;20042;-87
2022/11/11 23:44:14;;;;;;;10.90;6.60;;;;;;;;;;4983286;28;20026;-85
2022/11/11 23:46:40;;;;;;;10.65;6.75;;;;;;;;;;4965053;28;20026;-88
2022/11/11 23:49:06;;;;;;;9.88;6.68;;;;;;;;;;4965865;28;20086;-85
2022/11/11 23:51:33;;;;;;;9.95;6.20;;;;;;;;;;4966225;28;20035;-84
2022/11/11 23:54:00;;;;;;;12.10;6.57;;;;;;;;;;4966012;28;20062;-84
2022/11/11 23:56:29;;;;;;;11.68;7.07;;;;;;;;;;4966496;28;20015;-84
2022/11/11 23:58:55;;;;;;;11.55;7.10;;;;;;;;;;4981018;28;20043;-87
